createdAt,value
2019-01-25T00:01:13.427Z,100280.26
2019-01-25T00:03:45.384Z,100277.24
2019-01-25T00:06:19.680Z,100280.25
2019-01-25T00:08:51.409Z,100280.70
2019-01-25T00:11:23.556Z,100284.98
2019-01-25T00:13:55.759Z,100285.00
2019-01-25T00:16:28.884Z,100292.30
2019-01-25T00:19:00.755Z,100288.02
2019-01-25T00:21:35.178Z,100293.59
2019-01-25T00:24:07.385Z,100289.75
2019-01-25T00:26:41.999Z,100289.32
2019-01-25T00:29:13.909Z,100288.45
2019-01-25T00:31:45.527Z,100286.30
2019-01-25T00:34:17.191Z,100287.60
2019-01-25T00:36:50.571Z,100278.98
2019-01-25T00:39:22.258Z,100286.31
2019-01-25T00:41:54.071Z,100282.88
2019-01-25T00:44:28.757Z,100283.28
2019-01-25T00:47:01.577Z,100284.16
2019-01-25T00:49:33.910Z,100281.58
2019-01-25T00:52:05.712Z,100282.42
2019-01-25T00:54:41.261Z,100282.01
2019-01-25T00:57:23.134Z,100289.30
2019-01-25T01:00:01.402Z,100294.02
2019-01-25T01:02:43.790Z,100297.91
2019-01-25T01:05:22.574Z,100300.48
2019-01-25T01:07:56.537Z,100301.75
2019-01-25T01:10:34.018Z,100309.89
2019-01-25T01:13:07.784Z,100314.17
2019-01-25T01:15:41.951Z,100318.91
2019-01-25T01:18:16.507Z,100323.19
2019-01-25T01:20:48.287Z,100326.17
2019-01-25T01:23:20.224Z,100318.86
2019-01-25T01:25:54.294Z,100329.16
2019-01-25T01:28:26.129Z,100331.33
2019-01-25T01:30:57.771Z,100331.31
2019-01-25T01:33:30.604Z,100332.60
2019-01-25T01:36:08.879Z,100341.63
2019-01-25T01:38:46.546Z,100331.75
2019-01-25T01:41:20.332Z,100336.05
2019-01-25T01:44:03.607Z,100335.19
2019-01-25T01:46:38.057Z,100331.34
2019-01-25T01:49:16.390Z,100336.49
2019-01-25T01:51:50.375Z,100344.65
2019-01-25T01:54:22.118Z,100333.02
2019-01-25T01:56:57.088Z,100333.91
2019-01-25T01:59:28.769Z,100340.31
2019-01-25T02:02:00.786Z,100345.88
2019-01-25T02:04:44.325Z,100354.02
2019-01-25T02:07:18.985Z,100359.16
2019-01-25T02:09:54.944Z,100355.67
2019-01-25T02:12:30.481Z,100354.78
2019-01-25T02:15:06.925Z,100349.61
2019-01-25T02:17:51.084Z,100351.77
2019-01-25T02:20:38.007Z,100349.66
2019-01-25T02:23:14.045Z,100343.67
2019-01-25T02:25:52.918Z,100344.58
2019-01-25T02:28:24.623Z,100351.45
2019-01-25T02:30:56.721Z,100347.61
2019-01-25T02:33:28.560Z,100339.86
2019-01-25T02:36:00.451Z,100345.88
2019-01-25T02:38:32.051Z,100343.75
2019-01-25T02:41:04.566Z,100335.59
2019-01-25T02:43:36.252Z,100337.34
2019-01-25T02:46:07.893Z,100343.36
2019-01-25T02:48:39.585Z,100341.63
2019-01-25T02:51:11.369Z,100337.35
2019-01-25T02:53:42.932Z,100325.75
2019-01-25T02:56:16.320Z,100330.93
2019-01-25T02:58:48.185Z,100330.95
2019-01-25T03:01:19.829Z,100337.82
2019-01-25T03:03:51.532Z,100336.97
2019-01-25T03:06:23.471Z,100336.10
2019-01-25T03:08:55.526Z,100336.53
2019-01-25T03:11:27.224Z,100333.10
2019-01-25T03:13:58.921Z,100332.69
2019-01-25T03:16:30.547Z,100327.53
2019-01-25T03:19:02.902Z,100334.42
2019-01-25T03:21:34.779Z,100333.56
2019-01-25T03:24:06.678Z,100330.56
2019-01-25T03:26:38.315Z,100321.09
2019-01-25T03:29:09.918Z,100325.39
2019-01-25T03:31:41.586Z,100323.66
2019-01-25T03:34:13.219Z,100332.24
2019-01-25T03:36:46.485Z,100338.27
2019-01-25T03:39:18.107Z,100340.39
2019-01-25T03:41:50.833Z,100346.00
2019-01-25T03:44:22.450Z,100344.28
2019-01-25T03:46:54.180Z,100346.02
2019-01-25T03:49:25.879Z,100349.03
2019-01-25T03:51:57.670Z,100357.19
2019-01-25T03:54:30.346Z,100356.76
2019-01-25T03:57:02.242Z,100356.36
2019-01-25T03:59:45.311Z,100343.45
2019-01-25T04:02:17.192Z,100346.91
2019-01-25T04:04:48.808Z,100342.59
2019-01-25T04:07:21.002Z,100350.78
2019-01-25T04:09:53.510Z,100351.64
2019-01-25T04:12:25.369Z,100357.23
2019-01-25T04:14:56.994Z,100352.08
2019-01-25T04:17:29.385Z,100355.06
2019-01-25T04:20:01.031Z,100353.38
2019-01-25T04:22:32.899Z,100354.20
2019-01-25T04:25:05.917Z,100358.51
2019-01-25T04:27:37.575Z,100360.65
2019-01-25T04:30:14.024Z,100360.25
2019-01-25T04:32:45.633Z,100358.09
2019-01-25T04:35:17.223Z,100369.69
2019-01-25T04:37:48.839Z,100367.55
2019-01-25T04:40:20.874Z,100355.95
2019-01-25T04:42:52.756Z,100361.11
2019-01-25T04:45:24.546Z,100367.55
2019-01-25T04:47:56.164Z,100356.80
2019-01-25T04:50:28.158Z,100363.66
2019-01-25T04:52:59.822Z,100361.09
2019-01-25T04:55:33.894Z,100360.69
2019-01-25T04:58:15.869Z,100361.09
2019-01-25T05:00:48.095Z,100367.13
2019-01-25T05:03:25.646Z,100361.11
2019-01-25T05:06:06.448Z,100363.70
2019-01-25T05:08:38.333Z,100367.97
2019-01-25T05:11:24.788Z,100363.69
2019-01-25T05:14:02.972Z,100364.11
2019-01-25T05:16:34.709Z,100370.98
2019-01-25T05:19:06.478Z,100371.84
2019-01-25T05:21:38.133Z,100374.86
2019-01-25T05:24:15.831Z,100380.45
2019-01-25T05:26:49.069Z,100390.77
2019-01-25T05:29:24.695Z,100383.88
2019-01-25T05:31:57.552Z,100388.60
2019-01-25T05:34:30.622Z,100394.19
2019-01-25T05:37:09.403Z,100392.45
2019-01-25T05:39:54.811Z,100395.03
2019-01-25T05:42:32.984Z,100389.44
2019-01-25T05:45:12.182Z,100394.19
2019-01-25T05:47:52.496Z,100391.17
2019-01-25T05:50:27.294Z,100394.59
2019-01-25T05:53:06.079Z,100390.31
2019-01-25T05:55:38.955Z,100389.01
2019-01-25T05:58:13.494Z,100397.19
2019-01-25T06:00:46.586Z,100395.47
2019-01-25T06:03:18.204Z,100396.77
2019-01-25T06:05:50.634Z,100396.31
2019-01-25T06:08:32.687Z,100395.45
2019-01-25T06:11:07.823Z,100400.14
2019-01-25T06:13:41.149Z,100402.72
2019-01-25T06:16:13.049Z,100404.47
2019-01-25T06:18:44.758Z,100407.02
2019-01-25T06:21:16.408Z,100413.03
2019-01-25T06:23:48.045Z,100406.58
2019-01-25T06:26:19.653Z,100406.16
2019-01-25T06:28:54.528Z,100406.17
2019-01-25T06:31:26.325Z,100410.47
2019-01-25T06:33:58.129Z,100409.60
2019-01-25T06:36:29.765Z,100409.59
2019-01-25T06:39:01.438Z,100410.88
2019-01-25T06:41:33.160Z,100415.16
2019-01-25T06:44:04.915Z,100409.16
2019-01-25T06:46:36.544Z,100420.73
2019-01-25T06:49:08.182Z,100427.61
2019-01-25T06:51:39.804Z,100429.34
2019-01-25T06:54:11.445Z,100438.78
2019-01-25T06:56:43.095Z,100447.36
2019-01-25T06:59:20.879Z,100438.77
2019-01-25T07:02:17.296Z,100450.80
2019-01-25T07:04:50.958Z,100450.78
2019-01-25T07:07:28.997Z,100449.52
2019-01-25T07:10:08.342Z,100455.08
2019-01-25T07:12:43.120Z,100444.75
2019-01-25T07:15:17.514Z,100444.33
2019-01-25T07:17:49.179Z,100458.09
2019-01-25T07:20:20.802Z,100463.67
2019-01-25T07:22:52.423Z,100466.27
2019-01-25T07:25:24.048Z,100467.97
2019-01-25T07:27:55.719Z,100470.12
2019-01-25T07:30:27.494Z,100468.00
2019-01-25T07:32:59.146Z,100469.27
2019-01-25T07:35:30.834Z,100485.62
2019-01-25T07:38:02.466Z,100476.61
2019-01-25T07:40:34.262Z,100482.20
2019-01-25T07:43:05.940Z,100477.94
2019-01-25T07:45:37.715Z,100474.06
2019-01-25T07:48:09.337Z,100476.23
2019-01-25T07:50:41.103Z,100480.12
2019-01-25T07:53:12.814Z,100474.13
2019-01-25T07:55:44.525Z,100479.70
2019-01-25T07:58:16.191Z,100479.72
2019-01-25T08:00:48.186Z,100479.30
2019-01-25T08:03:20.178Z,100484.06
2019-01-25T08:05:52.381Z,100486.22
2019-01-25T08:08:24.061Z,100478.49
2019-01-25T08:10:56.062Z,100488.37
2019-01-25T08:13:27.736Z,100489.69
2019-01-25T08:15:59.730Z,100491.39
2019-01-25T08:18:31.615Z,100482.80
2019-01-25T08:21:03.368Z,100483.23
2019-01-25T08:23:34.981Z,100484.11
2019-01-25T08:26:06.695Z,100487.13
2019-01-25T08:28:38.306Z,100490.98
2019-01-25T08:31:09.923Z,100493.58
2019-01-25T08:33:41.669Z,100491.43
2019-01-25T08:36:13.271Z,100495.73
2019-01-25T08:38:44.952Z,100491.02
2019-01-25T08:41:16.588Z,100496.62
2019-01-25T08:43:48.250Z,100503.95
2019-01-25T08:46:19.901Z,100500.93
2019-01-25T08:48:51.631Z,100493.63
2019-01-25T08:51:23.410Z,100501.82
2019-01-25T08:53:55.161Z,100504.41
2019-01-25T08:56:26.881Z,100495.38
2019-01-25T08:58:58.962Z,100501.37
2019-01-25T09:01:30.623Z,100502.25
2019-01-25T09:04:02.914Z,100513.02
2019-01-25T09:06:32.153Z,100508.28
2019-01-25T09:09:05.918Z,100516.45
2019-01-25T09:11:37.584Z,100519.91
2019-01-25T09:14:09.436Z,100501.39
2019-01-25T09:16:41.175Z,100502.27
2019-01-25T09:19:13.370Z,100506.13
2019-01-25T09:21:45.029Z,100505.28
2019-01-25T09:24:16.651Z,100511.29
2019-01-25T09:26:48.362Z,100513.89
2019-01-25T09:29:20.101Z,100519.90
2019-01-25T09:31:51.768Z,100517.31
2019-01-25T09:34:23.468Z,100519.90
2019-01-25T09:36:55.206Z,100522.48
2019-01-25T09:39:26.965Z,100533.27
2019-01-25T09:41:58.625Z,100531.09
2019-01-25T09:44:30.506Z,100537.98
2019-01-25T09:47:02.320Z,100542.73
2019-01-25T09:49:34.041Z,100543.17
2019-01-25T09:52:06.101Z,100543.17
2019-01-25T09:54:37.761Z,100544.47
2019-01-25T09:57:09.393Z,100550.06
2019-01-25T09:59:42.366Z,100547.90
2019-01-25T10:02:14.637Z,100548.76
2019-01-25T10:04:46.275Z,100540.12
2019-01-25T10:07:18.325Z,100539.69
2019-01-25T10:09:49.988Z,100537.97
2019-01-25T10:12:21.632Z,100538.41
2019-01-25T10:14:53.318Z,100553.48
2019-01-25T10:17:24.934Z,100550.45
2019-01-25T10:19:56.706Z,100550.04
2019-01-25T10:22:28.584Z,100550.45
2019-01-25T10:25:00.273Z,100533.22
2019-01-25T10:27:31.959Z,100534.93
2019-01-25T10:30:04.164Z,100534.92
2019-01-25T10:32:37.638Z,100531.89
2019-01-25T10:35:11.187Z,100523.71
2019-01-25T10:37:43.108Z,100527.14
2019-01-25T10:40:18.304Z,100526.31
2019-01-25T10:42:53.168Z,100526.33
2019-01-25T10:45:31.756Z,100534.09
2019-01-25T10:48:03.522Z,100537.94
2019-01-25T10:50:35.181Z,100540.06
2019-01-25T10:53:08.751Z,100534.86
2019-01-25T10:55:40.495Z,100530.55
2019-01-25T10:58:12.236Z,100520.58
2019-01-25T11:00:43.901Z,100527.47
2019-01-25T11:03:15.551Z,100531.77
2019-01-25T11:05:47.202Z,100529.58
2019-01-25T11:08:18.962Z,100525.25
2019-01-25T11:10:51.340Z,100520.91
2019-01-25T11:13:23.004Z,100524.33
2019-01-25T11:15:54.758Z,100526.02
2019-01-25T11:18:26.536Z,100522.98
2019-01-25T11:20:58.233Z,100522.95
2019-01-25T11:23:30.003Z,100521.63
2019-01-25T11:26:01.774Z,100512.56
2019-01-25T11:28:33.425Z,100516.91
2019-01-25T11:31:05.117Z,100517.80
2019-01-25T11:33:36.987Z,100511.79
2019-01-25T11:36:08.749Z,100518.72
2019-01-25T11:38:41.998Z,100523.47
2019-01-25T11:41:13.811Z,100512.66
2019-01-25T11:43:45.458Z,100510.44
2019-01-25T11:46:17.102Z,100504.33
2019-01-25T11:48:48.745Z,100511.63
2019-01-25T11:51:20.425Z,100509.04
2019-01-25T11:53:52.530Z,100504.29
2019-01-25T11:56:24.351Z,100510.70
2019-01-25T11:58:59.144Z,100510.66
2019-01-25T12:04:18.317Z,100498.92
2019-01-25T12:06:50.176Z,100501.47
2019-01-25T12:09:22.385Z,100497.59
2019-01-25T12:11:54.212Z,100499.35
2019-01-25T12:14:26.183Z,100495.94
2019-01-25T12:16:58.401Z,100514.94
2019-01-25T12:19:30.430Z,100507.59
2019-01-25T12:22:02.183Z,100506.73
2019-01-25T12:24:33.941Z,100503.28
2019-01-25T12:27:06.520Z,100506.77
2019-01-25T12:29:38.327Z,100510.23
2019-01-25T12:32:09.991Z,100511.13
2019-01-25T12:34:41.845Z,100512.86
2019-01-25T12:37:13.518Z,100511.99
2019-01-25T12:39:45.415Z,100522.39
2019-01-25T12:42:17.346Z,100516.81
2019-01-25T12:44:52.977Z,100521.19
2019-01-25T12:47:25.782Z,100525.94
2019-01-25T12:49:57.639Z,100530.69
2019-01-25T12:52:29.275Z,100529.33
2019-01-25T12:55:00.924Z,100521.56
2019-01-25T12:57:32.831Z,100524.58
2019-01-25T13:00:05.568Z,100525.45
2019-01-25T13:02:37.349Z,100528.44
2019-01-25T13:05:13.294Z,100515.48
2019-01-25T13:07:45.022Z,100522.36
2019-01-25T13:10:18.002Z,100529.66
2019-01-25T13:12:49.776Z,100517.57
2019-01-25T13:15:21.901Z,100509.36
2019-01-25T13:17:53.649Z,100510.66
2019-01-25T13:20:27.656Z,100507.64
2019-01-25T13:22:59.529Z,100512.34
2019-01-25T13:25:31.265Z,100499.75
2019-01-25T13:28:03.145Z,100493.70
2019-01-25T13:30:34.800Z,100492.36
2019-01-25T13:33:06.888Z,100497.55
2019-01-25T13:35:38.520Z,100483.29
2019-01-25T13:38:11.702Z,100489.38
2019-01-25T13:40:46.235Z,100492.88
2019-01-25T13:43:18.104Z,100491.55
2019-01-25T13:45:49.820Z,100487.22
2019-01-25T13:48:21.618Z,100485.05
2019-01-25T13:51:00.002Z,100488.08
2019-01-25T13:53:33.072Z,100488.55
2019-01-25T13:56:07.267Z,100495.03
2019-01-25T13:58:44.203Z,100498.09
2019-01-25T14:01:17.463Z,100493.74
2019-01-25T14:03:49.168Z,100497.63
2019-01-25T14:06:20.947Z,100507.98
2019-01-25T14:08:52.802Z,100512.74
2019-01-25T14:11:24.880Z,100519.25
2019-01-25T14:13:56.699Z,100524.48
2019-01-25T14:16:28.426Z,100523.19
2019-01-25T14:19:00.179Z,100521.92
2019-01-25T14:21:31.879Z,100518.94
2019-01-25T14:24:03.572Z,100518.97
2019-01-25T14:26:35.296Z,100514.22
2019-01-25T14:29:07.241Z,100515.05
2019-01-25T14:31:39.123Z,100513.36
2019-01-25T14:34:10.863Z,100516.38
2019-01-25T14:36:42.589Z,100516.34
2019-01-25T14:39:14.303Z,100513.75
2019-01-25T14:41:45.965Z,100516.78
2019-01-25T14:44:17.990Z,100521.09
2019-01-25T14:46:50.116Z,100520.66
2019-01-25T14:49:22.035Z,100523.25
2019-01-25T14:51:53.839Z,100524.15
2019-01-25T14:54:25.541Z,100537.10
2019-01-25T14:56:57.281Z,100547.46
2019-01-25T14:59:29.056Z,100547.00
2019-01-25T15:02:01.013Z,100540.09
2019-01-25T15:04:32.688Z,100543.98
2019-01-25T15:07:04.825Z,100542.25
2019-01-25T15:09:38.053Z,100534.94
2019-01-25T15:12:13.368Z,100540.95
2019-01-25T15:14:45.046Z,100529.30
2019-01-25T15:17:20.823Z,100524.12
2019-01-25T15:19:54.380Z,100522.86
2019-01-25T15:22:26.366Z,100532.81
2019-01-25T15:24:58.125Z,100526.80
2019-01-25T15:27:29.815Z,100535.44
2019-01-25T15:30:01.459Z,100529.83
2019-01-25T15:32:33.298Z,100531.98
2019-01-25T15:35:06.246Z,100523.81
2019-01-25T15:37:38.148Z,100518.20
2019-01-25T15:40:11.586Z,100513.02
2019-01-25T15:42:43.270Z,100510.41
2019-01-25T15:45:16.494Z,100507.81
2019-01-25T15:47:49.851Z,100511.70
2019-01-25T15:50:30.198Z,100514.75
2019-01-25T15:53:02.238Z,100511.30
2019-01-25T15:55:34.174Z,100506.15
2019-01-25T15:58:06.107Z,100514.78
2019-01-25T16:00:37.742Z,100512.59
2019-01-25T16:03:09.564Z,100531.58
2019-01-25T16:05:41.296Z,100532.45
2019-01-25T16:08:13.146Z,100530.72
2019-01-25T16:10:46.863Z,100529.42
2019-01-25T16:13:18.592Z,100527.30
2019-01-25T16:15:50.303Z,100537.69
2019-01-25T16:18:22.098Z,100529.91
2019-01-25T16:20:53.818Z,100535.95
2019-01-25T16:23:26.527Z,100537.68
2019-01-25T16:25:58.567Z,100534.66
2019-01-25T16:28:30.425Z,100533.37
2019-01-25T16:31:02.175Z,100531.61
2019-01-25T16:33:33.887Z,100527.72
2019-01-25T16:36:06.049Z,100521.25
2019-01-25T16:38:37.881Z,100521.69
2019-01-25T16:41:10.002Z,100533.37
2019-01-25T16:43:41.683Z,100522.58
2019-01-25T16:46:13.401Z,100523.01
2019-01-25T16:48:45.116Z,100534.69
2019-01-25T16:51:16.798Z,100535.98
2019-01-25T16:53:48.504Z,100536.41
2019-01-25T16:56:20.424Z,100537.27
2019-01-25T16:58:52.214Z,100529.97
2019-01-25T17:01:24.048Z,100529.10
2019-01-25T17:03:57.258Z,100527.78
2019-01-25T17:06:28.970Z,100531.66
2019-01-25T17:09:08.261Z,100533.39
2019-01-25T17:11:47.518Z,100537.73
2019-01-25T17:14:19.455Z,100529.98
2019-01-25T17:16:58.188Z,100539.05
2019-01-25T17:19:36.874Z,100536.89
2019-01-25T17:22:12.473Z,100532.98
2019-01-25T17:24:45.642Z,100533.88
2019-01-25T17:27:17.999Z,100541.20
2019-01-25T17:29:52.473Z,100542.06
2019-01-25T17:32:24.294Z,100536.03
2019-01-25T17:34:56.483Z,100533.88
2019-01-25T17:37:39.809Z,100522.20
2019-01-25T17:40:17.080Z,100523.49
2019-01-25T17:42:53.234Z,100522.63
2019-01-25T17:45:25.323Z,100526.08
2019-01-25T17:47:57.120Z,100523.03
2019-01-25T17:50:28.767Z,100527.78
2019-01-25T17:53:00.465Z,100530.77
2019-01-25T17:55:33.830Z,100513.95
2019-01-25T17:58:08.140Z,100511.36
2019-01-25T18:01:01.829Z,100508.73
2019-01-25T18:03:33.593Z,100508.31
2019-01-25T18:06:05.609Z,100511.76
2019-01-25T18:08:37.581Z,100514.78
2019-01-25T18:11:10.601Z,100521.25
2019-01-25T18:13:42.268Z,100514.34
2019-01-25T18:16:13.965Z,100504.42
2019-01-25T18:18:46.538Z,100516.48
2019-01-25T18:21:18.301Z,100514.32
2019-01-25T18:23:50.116Z,100505.26
2019-01-25T18:26:25.152Z,100508.67
2019-01-25T18:29:29.704Z,100505.66
2019-01-25T18:32:01.366Z,100515.58
2019-01-25T18:34:33.095Z,100513.45
2019-01-25T18:37:04.980Z,100511.30
2019-01-25T18:39:36.771Z,100505.69
2019-01-25T18:42:08.494Z,100495.33
2019-01-25T18:44:40.249Z,100489.29
2019-01-25T18:47:12.132Z,100484.97
2019-01-25T18:49:43.915Z,100486.70
2019-01-25T18:52:15.861Z,100483.25
2019-01-25T18:54:47.887Z,100483.25
2019-01-25T18:57:19.583Z,100485.83
2019-01-25T18:59:51.533Z,100487.16
2019-01-25T19:02:26.830Z,100478.96
2019-01-25T19:05:01.293Z,100480.23
2019-01-25T19:07:35.557Z,100471.16
2019-01-25T19:10:11.995Z,100464.66
2019-01-25T19:12:43.954Z,100465.95
2019-01-25T19:15:20.169Z,100467.20
2019-01-25T19:17:51.993Z,100478.42
2019-01-25T19:20:23.665Z,100475.41
2019-01-25T19:22:55.557Z,100469.76
2019-01-25T19:25:27.241Z,100457.67
2019-01-25T19:27:59.145Z,100454.65
2019-01-25T19:30:35.107Z,100446.87
2019-01-25T19:33:07.419Z,100449.90
2019-01-25T19:35:39.287Z,100451.59
2019-01-25T19:38:13.545Z,100451.16
2019-01-25T19:40:45.496Z,100453.75
2019-01-25T19:43:17.292Z,100446.84
2019-01-25T19:45:49.764Z,100449.43
2019-01-25T19:48:21.561Z,100452.02
2019-01-25T19:50:54.434Z,100451.59
2019-01-25T19:53:26.336Z,100452.84
2019-01-25T19:55:58.102Z,100447.66
2019-01-25T19:58:29.999Z,100450.64
2019-01-25T20:01:01.945Z,100450.64
2019-01-25T20:03:33.769Z,100459.23
2019-01-25T20:06:05.833Z,100464.84
2019-01-25T20:08:37.704Z,100463.08
2019-01-25T20:11:09.845Z,100463.51
2019-01-25T20:13:42.036Z,100473.44
2019-01-25T20:16:13.873Z,100471.28
2019-01-25T20:18:45.569Z,100474.30
2019-01-25T20:21:17.312Z,100462.25
2019-01-25T20:23:49.052Z,100467.44
2019-01-25T20:26:20.833Z,100457.55
2019-01-25T20:28:52.661Z,100459.70
2019-01-25T20:31:24.356Z,100456.69
2019-01-25T20:33:56.262Z,100458.41
2019-01-25T20:36:28.900Z,100456.69
2019-01-25T20:39:00.828Z,100448.91
2019-01-25T20:41:32.506Z,100451.47
2019-01-25T20:44:04.414Z,100448.88
2019-01-25T20:46:36.069Z,100445.41
2019-01-25T20:49:08.032Z,100450.59
2019-01-25T20:51:39.832Z,100441.53
2019-01-25T20:54:11.111Z,100433.80
2019-01-25T20:56:44.407Z,100428.23
2019-01-25T20:59:16.419Z,100427.37
2019-01-25T21:01:53.236Z,100424.78
2019-01-25T21:04:28.819Z,100416.61
2019-01-25T21:07:00.534Z,100420.08
2019-01-25T21:09:32.259Z,100424.39
2019-01-25T21:12:05.091Z,100437.81
2019-01-25T21:14:36.835Z,100436.09
2019-01-25T21:17:08.785Z,100425.77
2019-01-25T21:19:40.416Z,100430.52
2019-01-25T21:22:12.135Z,100424.47
2019-01-25T21:24:43.855Z,100422.31
2019-01-25T21:27:15.625Z,100427.50
2019-01-25T21:29:48.871Z,100433.97
2019-01-25T21:32:20.668Z,100426.67
2019-01-25T21:34:52.374Z,100420.20
2019-01-25T21:37:24.238Z,100424.52
2019-01-25T21:39:55.867Z,100421.49
2019-01-25T21:42:27.518Z,100421.49
2019-01-25T21:44:59.257Z,100409.84
2019-01-25T21:47:31.034Z,100404.23
2019-01-25T21:50:02.678Z,100400.77
2019-01-25T21:52:34.409Z,100394.30
2019-01-25T21:55:08.498Z,100401.16
2019-01-25T21:57:40.208Z,100403.71
2019-01-25T22:00:17.018Z,100392.92
2019-01-25T22:02:48.909Z,100387.73
2019-01-25T22:05:21.048Z,100398.53
2019-01-25T22:07:52.883Z,100386.44
2019-01-25T22:10:29.490Z,100381.66
2019-01-25T22:13:04.317Z,100383.80
2019-01-25T22:15:36.265Z,100381.22
2019-01-25T22:18:08.789Z,100375.59
2019-01-25T22:20:40.574Z,100365.63
2019-01-25T22:23:12.653Z,100364.33
2019-01-25T22:25:44.485Z,100358.72
2019-01-25T22:28:22.894Z,100352.68
2019-01-25T22:30:54.542Z,100348.83
2019-01-25T22:33:26.229Z,100345.81
2019-01-25T22:35:58.103Z,100347.11
2019-01-25T22:38:29.774Z,100341.92
2019-01-25T22:41:01.483Z,100334.59
2019-01-25T22:43:36.126Z,100331.09
2019-01-25T22:46:09.328Z,100323.32
2019-01-25T22:48:41.113Z,100326.77
2019-01-25T22:51:23.725Z,100326.28
2019-01-25T22:53:58.477Z,100330.59
2019-01-25T22:56:30.318Z,100320.19
2019-01-25T22:59:01.984Z,100319.80
2019-01-25T23:01:35.915Z,100324.52
2019-01-25T23:04:54.972Z,100320.19
2019-01-25T23:07:32.556Z,100310.30
2019-01-25T23:10:16.090Z,100319.38
2019-01-25T23:12:52.532Z,100308.58
2019-01-25T23:15:28.233Z,100323.27
2019-01-25T23:18:03.482Z,100317.23
2019-01-25T23:20:36.714Z,100312.47
2019-01-25T23:23:08.415Z,100317.22
2019-01-25T23:25:40.207Z,100325.47
2019-01-25T23:28:11.909Z,100316.03
2019-01-25T23:30:43.686Z,100312.63
2019-01-25T23:33:15.493Z,100314.41
2019-01-25T23:35:47.170Z,100307.12
2019-01-25T23:38:19.319Z,100297.67
2019-01-25T23:40:51.160Z,100299.40
2019-01-25T23:43:22.993Z,100299.40
2019-01-25T23:45:55.019Z,100295.09
2019-01-25T23:48:26.714Z,100288.65
2019-01-25T23:50:58.623Z,100283.04
2019-01-25T23:53:30.477Z,100289.52
2019-01-25T23:56:02.410Z,100286.92
2019-01-25T23:58:34.193Z,100298.58
